Time;durP1;ratioP1;P1;durP2;ratioP2;P2;SDS_P1;SDS_P2;PMS_P1;PMS_P2;Temp;Humidity;BMP_temperature;BMP_pressure;BME280_temperature;BME280_humidity;BME280_pressure;Samples;Min_cycle;Max_cycle;Signal;HPM_P1;HPM_P2
2023/01/28 00:00:11;;;;;;;;;;;;;;;;;;4985684;28;19969;-78
2023/01/28 00:02:37;;;;;;;;;;;;;;;;;;4987190;28;19972;-77
2023/01/28 00:05:06;;;;;;;;;;;;;;;;;;4969283;28;19929;-76
2023/01/28 00:07:32;;;;;;;;;;;;;;;;;;4979039;28;19917;-77
2023/01/28 00:09:58;;;;;;;;;;;;;;;;;;4994331;28;19925;-79
2023/01/28 00:12:26;;;;;;;;;;;;;;;;;;4987267;28;20000;-79
2023/01/28 00:14:52;;;;;;;;;;;;;;;;;;4976965;28;19957;-79
2023/01/28 00:17:20;;;;;;;;;;;;;;;;;;5001075;28;19925;-79
2023/01/28 00:19:46;;;;;;;;;;;;;;;;;;4980926;28;19969;-78
2023/01/28 00:22:14;;;;;;;;;;;;;;;;;;4967940;28;20385;-79
2023/01/28 00:24:40;;;;;;;;;;;;;;;;;;4984900;28;19922;-78
2023/01/28 00:27:06;;;;;;;;;;;;;;;;;;4988325;28;20655;-79
2023/01/28 00:29:32;;;;;;;;;;;;;;;;;;4986870;28;19913;-79
2023/01/28 00:31:58;;;;;;;;;;;;;;;;;;5009229;28;19918;-79
2023/01/28 00:34:25;;;;;;;;;;;;;;;;;;4988259;28;19925;-78
2023/01/28 00:36:56;;;;;;;;;;;;;;;;;;4978478;28;19953;-78
2023/01/28 00:39:23;;;;;;;;;;;;;;;;;;5007575;28;19941;-78
2023/01/28 00:41:49;;;;;;;;;;;;;;;;;;4980056;28;19984;-78
2023/01/28 00:44:15;;;;;;;;;;;;;;;;;;5008027;28;19921;-78
2023/01/28 00:46:41;;;;;;;;;;;;;;;;;;5007105;28;19918;-78
2023/01/28 00:49:08;;;;;;;;;;;;;;;;;;4974090;28;19918;-78
2023/01/28 00:51:34;;;;;;;;;;;;;;;;;;4974662;28;19932;-77
2023/01/28 00:54:00;;;;;;;;;;;;;;;;;;4981841;28;19928;-79
2023/01/28 00:56:27;;;;;;;;;;;;;;;;;;5008646;28;19926;-78
2023/01/28 00:58:53;;;;;;;;;;;;;;;;;;4972674;28;19952;-78
2023/01/28 01:01:19;;;;;;;;;;;;;;;;;;4984704;28;19988;-78
2023/01/28 01:03:46;;;;;;;;;;;;;;;;;;4984573;28;19933;-78
2023/01/28 01:06:12;;;;;;;;;;;;;;;;;;4989329;28;20209;-78
2023/01/28 01:08:48;;;;;;;;;;;;;;;;;;5006046;28;19922;-78
2023/01/28 01:11:15;;;;;;;;;;;;;;;;;;5006077;28;19914;-78
2023/01/28 01:13:41;;;;;;;;;;;;;;;;;;4997831;28;19921;-78
2023/01/28 01:16:07;;;;;;;;;;;;;;;;;;4988388;28;19921;-77
2023/01/28 01:18:33;;;;;;;;;;;;;;;;;;4979567;28;20361;-77
2023/01/28 01:21:00;;;;;;;;;;;;;;;;;;5009087;28;19948;-77
2023/01/28 01:23:26;;;;;;;;;;;;;;;;;;4989642;28;19980;-77
2023/01/28 01:25:52;;;;;;;;;;;;;;;;;;4989458;28;20677;-77
2023/01/28 01:28:19;;;;;;;;;;;;;;;;;;5005468;28;19924;-77
2023/01/28 01:30:45;;;;;;;;;;;;;;;;;;4996517;28;19917;-78
2023/01/28 01:33:12;;;;;;;;;;;;;;;;;;5005747;28;19918;-78
2023/01/28 01:35:38;;;;;;;;;;;;;;;;;;4987449;28;19921;-78
2023/01/28 01:38:05;;;;;;;;;;;;;;;;;;5007116;28;20431;-78
2023/01/28 01:40:31;;;;;;;;;;;;;;;;;;4981271;28;19972;-78
2023/01/28 01:42:57;;;;;;;;;;;;;;;;;;4988215;28;19929;-78
2023/01/28 01:45:23;;;;;;;;;;;;;;;;;;4989677;28;19926;-78
2023/01/28 01:47:49;;;;;;;;;;;;;;;;;;5000076;28;19918;-78
2023/01/28 01:50:16;;;;;;;;;;;;;;;;;;4980300;28;20408;-77
2023/01/28 01:52:42;;;;;;;;;;;;;;;;;;4965748;28;19929;-77
2023/01/28 01:55:08;;;;;;;;;;;;;;;;;;4971163;28;20271;-77
2023/01/28 01:57:34;;;;;;;;;;;;;;;;;;4961717;28;19941;-77
2023/01/28 02:00:04;;;;;;;;;;;;;;;;;;4953368;28;19921;-77
2023/01/28 02:02:31;;;;;;;;;;;;;;;;;;4963850;28;20457;-77
2023/01/28 02:04:57;;;;;;;;;;;;;;;;;;4976268;28;20001;-77
2023/01/28 02:07:23;;;;;;;;;;;;;;;;;;4967209;28;19925;-77
2023/01/28 02:09:49;;;;;;;;;;;;;;;;;;4972585;28;19984;-77
2023/01/28 02:12:15;;;;;;;;;;;;;;;;;;4995668;28;20507;-77
2023/01/28 02:14:42;;;;;;;;;;;;;;;;;;4976278;28;19972;-77
2023/01/28 02:17:08;;;;;;;;;;;;;;;;;;4968025;28;19917;-77
2023/01/28 02:19:34;;;;;;;;;;;;;;;;;;4964321;28;19921;-77
2023/01/28 02:22:01;;;;;;;;;;;;;;;;;;4979902;28;20012;-77
2023/01/28 02:24:27;;;;;;;;;;;;;;;;;;4967157;28;19922;-77
2023/01/28 02:26:53;;;;;;;;;;;;;;;;;;4980490;28;19936;-77
2023/01/28 02:29:19;;;;;;;;;;;;;;;;;;4988046;28;19920;-78
2023/01/28 02:31:46;;;;;;;;;;;;;;;;;;4970205;28;20329;-78
2023/01/28 02:34:12;;;;;;;;;;;;;;;;;;4965550;28;19926;-77
2023/01/28 02:36:38;;;;;;;;;;;;;;;;;;4965080;28;19929;-77
2023/01/28 02:39:04;;;;;;;;;;;;;;;;;;4951927;28;19918;-78
2023/01/28 02:41:30;;;;;;;;;;;;;;;;;;4962527;28;20491;-78
2023/01/28 02:43:57;;;;;;;;;;;;;;;;;;4963156;28;19921;-79
2023/01/28 02:49:08;;;;;;;;;;;;;;;;;;4971970;28;19914;-78
2023/01/28 02:51:34;;;;;;;;;;;;;;;;;;4962846;28;19930;-75
2023/01/28 02:54:00;;;;;;;;;;;;;;;;;;4969787;28;19922;-78
2023/01/28 02:56:28;;;;;;;;;;;;;;;;;;4976441;28;19925;-76
2023/01/28 02:58:54;;;;;;;;;;;;;;;;;;4980302;28;19918;-77
2023/01/28 03:01:20;;;;;;;;;;;;;;;;;;4998187;28;19976;-76
2023/01/28 03:03:46;;;;;;;;;;;;;;;;;;4994652;28;19995;-76
2023/01/28 03:06:12;;;;;;;;;;;;;;;;;;4978672;28;19976;-76
2023/01/28 03:38:53;;;;;;;;;;;;;;;;;;4973209;28;20378;-77
2023/01/28 03:41:19;;;;;;;;;;;;;;;;;;4973564;28;19921;-77
2023/01/28 03:43:45;;;;;;;;;;;;;;;;;;4983587;28;20410;-77
2023/01/28 03:46:12;;;;;;;;;;;;;;;;;;4968696;28;19922;-77
2023/01/28 03:48:38;;;;;;;;;;;;;;;;;;4982271;28;19996;-77
2023/01/28 03:51:04;;;;;;;;;;;;;;;;;;4967233;28;19934;-77
2023/01/28 03:53:30;;;;;;;;;;;;;;;;;;4980709;28;19976;-77
2023/01/28 03:55:57;;;;;;;;;;;;;;;;;;4995620;28;19917;-77
2023/01/28 03:58:45;;;;;;;;;;;;;;;;;;4986202;28;19921;-77
2023/01/28 04:01:11;;;;;;;;;;;;;;;;;;4976185;28;19918;-77
2023/01/28 04:03:38;;;;;;;;;;;;;;;;;;4984979;28;19977;-76
2023/01/28 04:06:05;;;;;;;;;;;;;;;;;;4983708;28;19968;-77
2023/01/28 04:08:31;;;;;;;;;;;;;;;;;;4982491;28;19917;-77
2023/01/28 04:10:57;;;;;;;;;;;;;;;;;;5003607;28;19944;-78
2023/01/28 04:13:23;;;;;;;;;;;;;;;;;;4988056;28;19917;-78
2023/01/28 04:15:50;;;;;;;;;;;;;;;;;;4985746;28;19949;-78
2023/01/28 04:18:16;;;;;;;;;;;;;;;;;;4995557;28;19921;-78
2023/01/28 04:20:42;;;;;;;;;;;;;;;;;;5004926;28;19971;-78
2023/01/28 04:23:09;;;;;;;;;;;;;;;;;;4990403;28;19926;-78
2023/01/28 04:25:35;;;;;;;;;;;;;;;;;;4992875;28;20332;-78
2023/01/28 04:28:01;;;;;;;;;;;;;;;;;;4983763;28;19918;-78
2023/01/28 04:30:27;;;;;;;;;;;;;;;;;;5003869;28;19929;-78
2023/01/28 04:32:54;;;;;;;;;;;;;;;;;;4987785;28;19917;-78
2023/01/28 04:35:20;;;;;;;;;;;;;;;;;;5001225;28;19956;-78
2023/01/28 04:37:46;;;;;;;;;;;;;;;;;;5005151;28;19949;-77
2023/01/28 04:40:13;;;;;;;;;;;;;;;;;;4988797;28;20000;-77
2023/01/28 04:42:39;;;;;;;;;;;;;;;;;;4987634;28;20297;-78
2023/01/28 04:45:05;;;;;;;;;;;;;;;;;;4993418;28;20035;-78
2023/01/28 04:47:31;;;;;;;;;;;;;;;;;;5005400;28;19921;-78
2023/01/28 04:49:58;;;;;;;;;;;;;;;;;;4975989;28;19921;-78
2023/01/28 04:52:24;;;;;;;;;;;;;;;;;;4977055;28;19969;-78
2023/01/28 04:54:50;;;;;;;;;;;;;;;;;;4957495;28;20718;-77
2023/01/28 04:57:16;;;;;;;;;;;;;;;;;;4965570;28;19973;-77
2023/01/28 04:59:45;;;;;;;;;;;;;;;;;;4983713;28;19922;-77
2023/01/28 05:02:12;;;;;;;;;;;;;;;;;;4981303;28;19930;-77
2023/01/28 05:04:38;;;;;;;;;;;;;;;;;;4971434;28;19921;-77
2023/01/28 05:07:04;;;;;;;;;;;;;;;;;;4964684;28;19969;-78
2023/01/28 05:09:30;;;;;;;;;;;;;;;;;;4972521;28;19918;-78
2023/01/28 05:11:56;;;;;;;;;;;;;;;;;;4972402;28;19976;-78
2023/01/28 05:14:23;;;;;;;;;;;;;;;;;;4963501;28;20361;-77
2023/01/28 05:16:49;;;;;;;;;;;;;;;;;;4956638;28;19922;-78
2023/01/28 05:19:15;;;;;;;;;;;;;;;;;;4986224;28;19921;-78
2023/01/28 05:21:41;;;;;;;;;;;;;;;;;;4975537;28;20385;-77
2023/01/28 05:24:07;;;;;;;;;;;;;;;;;;4977538;28;19948;-78
2023/01/28 05:26:34;;;;;;;;;;;;;;;;;;4956952;28;19926;-77
2023/01/28 05:29:00;;;;;;;;;;;;;;;;;;4958986;28;19918;-78
2023/01/28 05:31:26;;;;;;;;;;;;;;;;;;4977069;28;19972;-77
2023/01/28 05:33:52;;;;;;;;;;;;;;;;;;4977767;28;19922;-78
2023/01/28 05:36:19;;;;;;;;;;;;;;;;;;4964117;28;21019;-77
2023/01/28 05:38:45;;;;;;;;;;;;;;;;;;4964798;28;19918;-77
2023/01/28 05:41:11;;;;;;;;;;;;;;;;;;4966537;28;19921;-77
2023/01/28 05:43:37;;;;;;;;;;;;;;;;;;4967535;28;20279;-77
2023/01/28 05:46:03;;;;;;;;;;;;;;;;;;4967962;28;19922;-78
2023/01/28 05:48:30;;;;;;;;;;;;;;;;;;4963793;28;19930;-77
2023/01/28 05:50:56;;;;;;;;;;;;;;;;;;4971568;28;19930;-77
2023/01/28 05:53:22;;;;;;;;;;;;;;;;;;4970606;28;22664;-76
2023/01/28 05:55:48;;;;;;;;;;;;;;;;;;4986380;28;19928;-76
2023/01/28 05:58:15;;;;;;;;;;;;;;;;;;4979384;28;19971;-78
2023/01/28 06:00:41;;;;;;;;;;;;;;;;;;4982679;28;19923;-78
2023/01/28 06:03:07;;;;;;;;;;;;;;;;;;4979256;28;19926;-78
2023/01/28 06:05:33;;;;;;;;;;;;;;;;;;4966572;28;19917;-78
2023/01/28 06:08:00;;;;;;;;;;;;;;;;;;4988946;28;20649;-77
2023/01/28 06:10:26;;;;;;;;;;;;;;;;;;4983856;28;20585;-78
2023/01/28 06:12:55;;;;;;;;;;;;;;;;;;4973003;28;19924;-77
2023/01/28 06:15:21;;;;;;;;;;;;;;;;;;4975820;28;19914;-77
2023/01/28 06:17:47;;;;;;;;;;;;;;;;;;4992629;28;19924;-77
2023/01/28 06:20:15;;;;;;;;;;;;;;;;;;4983624;28;19918;-78
2023/01/28 06:22:41;;;;;;;;;;;;;;;;;;4987634;28;19933;-77
2023/01/28 06:25:08;;;;;;;;;;;;;;;;;;4990819;28;19960;-77
2023/01/28 06:27:34;;;;;;;;;;;;;;;;;;5006145;28;19926;-77
2023/01/28 06:30:01;;;;;;;;;;;;;;;;;;4994494;28;19917;-81
2023/01/28 06:32:27;;;;;;;;;;;;;;;;;;4984947;28;20436;-78
2023/01/28 06:34:58;;;;;;;;;;;;;;;;;;4989373;28;19921;-75
2023/01/28 06:37:25;;;;;;;;;;;;;;;;;;5001024;28;19925;-77
2023/01/28 06:39:51;;;;;;;;;;;;;;;;;;4973096;28;19982;-78
2023/01/28 06:42:17;;;;;;;;;;;;;;;;;;4985863;28;19929;-76
2023/01/28 06:44:43;;;;;;;;;;;;;;;;;;4979608;28;19926;-77
2023/01/28 06:47:10;;;;;;;;;;;;;;;;;;4981572;28;19921;-76
2023/01/28 06:49:36;;;;;;;;;;;;;;;;;;4987785;28;19925;-78
2023/01/28 06:52:03;;;;;;;;;;;;;;;;;;4991895;28;20023;-78
2023/01/28 06:54:29;;;;;;;;;;;;;;;;;;4986033;28;19917;-77
2023/01/28 06:56:55;;;;;;;;;;;;;;;;;;4972276;28;20027;-77
2023/01/28 06:59:22;;;;;;;;;;;;;;;;;;4990418;28;19940;-77
2023/01/28 07:01:48;;;;;;;;;;;;;;;;;;4990737;28;19914;-77
2023/01/28 07:04:14;;;;;;;;;;;;;;;;;;4980446;28;20381;-77
2023/01/28 07:06:40;;;;;;;;;;;;;;;;;;4987236;28;19925;-78
2023/01/28 07:09:07;;;;;;;;;;;;;;;;;;4983403;28;20883;-79
2023/01/28 07:11:33;;;;;;;;;;;;;;;;;;4985716;28;19972;-76
2023/01/28 07:13:59;;;;;;;;;;;;;;;;;;4995516;28;19914;-77
2023/01/28 07:16:25;;;;;;;;;;;;;;;;;;4971092;28;20344;-77
2023/01/28 07:18:52;;;;;;;;;;;;;;;;;;4987353;28;20009;-78
2023/01/28 07:21:18;;;;;;;;;;;;;;;;;;5009692;28;19914;-77
2023/01/28 07:23:44;;;;;;;;;;;;;;;;;;5010589;28;19987;-77
2023/01/28 07:26:10;;;;;;;;;;;;;;;;;;4991786;28;19922;-76
2023/01/28 07:28:37;;;;;;;;;;;;;;;;;;4983496;28;19926;-78
2023/01/28 07:31:03;;;;;;;;;;;;;;;;;;5004485;28;19926;-78
2023/01/28 07:33:29;;;;;;;;;;;;;;;;;;4996689;28;20004;-78
2023/01/28 07:35:55;;;;;;;;;;;;;;;;;;4982798;28;20431;-79
2023/01/28 07:38:21;;;;;;;;;;;;;;;;;;4979751;28;19960;-78
2023/01/28 07:40:48;;;;;;;;;;;;;;;;;;4991247;28;19921;-78
2023/01/28 07:43:14;;;;;;;;;;;;;;;;;;4969811;28;19929;-77
2023/01/28 07:45:40;;;;;;;;;;;;;;;;;;4975183;28;20440;-78
2023/01/28 07:48:07;;;;;;;;;;;;;;;;;;4984665;28;19922;-78
2023/01/28 07:50:33;;;;;;;;;;;;;;;;;;4991324;28;19929;-78
2023/01/28 07:52:59;;;;;;;;;;;;;;;;;;4952311;28;19926;-78
2023/01/28 07:55:26;;;;;;;;;;;;;;;;;;4978784;28;19930;-77
2023/01/28 07:57:52;;;;;;;;;;;;;;;;;;4986405;28;19926;-77
2023/01/28 08:00:18;;;;;;;;;;;;;;;;;;4991328;28;19918;-77
2023/01/28 08:02:46;;;;;;;;;;;;;;;;;;4968577;28;19922;-77
2023/01/28 08:05:12;;;;;;;;;;;;;;;;;;4975201;28;19933;-78
2023/01/28 08:07:39;;;;;;;;;;;;;;;;;;5000267;28;19918;-77
2023/01/28 08:10:05;;;;;;;;;;;;;;;;;;5004544;28;19972;-78
2023/01/28 08:12:31;;;;;;;;;;;;;;;;;;4970682;28;19976;-77
2023/01/28 08:14:57;;;;;;;;;;;;;;;;;;4970744;28;19917;-77
2023/01/28 08:17:24;;;;;;;;;;;;;;;;;;4956217;28;21518;-77
2023/01/28 08:19:50;;;;;;;;;;;;;;;;;;4964069;28;19922;-77
2023/01/28 08:22:16;;;;;;;;;;;;;;;;;;4977907;28;19957;-78
2023/01/28 08:24:42;;;;;;;;;;;;;;;;;;4971562;28;19918;-77
2023/01/28 08:27:08;;;;;;;;;;;;;;;;;;4999076;28;19922;-76
2023/01/28 08:29:35;;;;;;;;;;;;;;;;;;4977326;28;20266;-76
2023/01/28 08:32:01;;;;;;;;;;;;;;;;;;4964538;28;20003;-77
2023/01/28 08:34:27;;;;;;;;;;;;;;;;;;4972100;28;20250;-78
2023/01/28 08:36:53;;;;;;;;;;;;;;;;;;4963383;28;19980;-77
2023/01/28 08:39:19;;;;;;;;;;;;;;;;;;4963751;28;19922;-78
2023/01/28 08:41:46;;;;;;;;;;;;;;;;;;4993885;28;19922;-77
2023/01/28 08:44:12;;;;;;;;;;;;;;;;;;4969329;28;20309;-76
2023/01/28 08:46:38;;;;;;;;;;;;;;;;;;4972332;28;19921;-75
2023/01/28 08:49:05;;;;;;;;;;;;;;;;;;4977289;28;19922;-76
2023/01/28 08:51:31;;;;;;;;;;;;;;;;;;4994543;28;19949;-76
2023/01/28 08:53:57;;;;;;;;;;;;;;;;;;4963006;28;19930;-76
2023/01/28 08:56:23;;;;;;;;;;;;;;;;;;4957472;28;19944;-76
2023/01/28 08:58:50;;;;;;;;;;;;;;;;;;4962432;28;19937;-76
2023/01/28 09:01:16;;;;;;;;;;;;;;;;;;4983323;28;20638;-76
2023/01/28 09:03:42;;;;;;;;;;;;;;;;;;4961700;28;19930;-77
2023/01/28 09:06:08;;;;;;;;;;;;;;;;;;4951350;28;19972;-76
2023/01/28 09:08:34;;;;;;;;;;;;;;;;;;4958587;28;19926;-77
2023/01/28 09:11:01;;;;;;;;;;;;;;;;;;4992217;28;19925;-76
2023/01/28 09:13:27;;;;;;;;;;;;;;;;;;4958372;28;19918;-76
2023/01/28 09:15:53;;;;;;;;;;;;;;;;;;4961705;28;19922;-76
2023/01/28 09:18:20;;;;;;;;;;;;;;;;;;4990226;28;20294;-76
2023/01/28 09:20:46;;;;;;;;;;;;;;;;;;4962472;28;19922;-76
2023/01/28 09:23:12;;;;;;;;;;;;;;;;;;4949190;28;19933;-76
2023/01/28 09:25:38;;;;;;;;;;;;;;;;;;4957585;28;19992;-75
2023/01/28 09:28:05;;;;;;;;;;;;;;;;;;4974936;28;20639;-77
2023/01/28 09:30:31;;;;;;;;;;;;;;;;;;4979312;28;19969;-76
2023/01/28 09:32:57;;;;;;;;;;;;;;;;;;4984017;28;19929;-77
2023/01/28 09:35:23;;;;;;;;;;;;;;;;;;4989411;28;19922;-77
2023/01/28 09:37:50;;;;;;;;;;;;;;;;;;4991884;28;19918;-76
2023/01/28 09:40:17;;;;;;;;;;;;;;;;;;4983087;28;19926;-76
2023/01/28 09:42:43;;;;;;;;;;;;;;;;;;4954793;28;19930;-77
2023/01/28 09:45:09;;;;;;;;;;;;;;;;;;4959726;28;19929;-76
2023/01/28 09:47:35;;;;;;;;;;;;;;;;;;4972517;28;20415;-76
2023/01/28 09:50:02;;;;;;;;;;;;;;;;;;4979397;28;20031;-75
2023/01/28 09:52:28;;;;;;;;;;;;;;;;;;5001325;28;19995;-77
2023/01/28 09:54:54;;;;;;;;;;;;;;;;;;4994082;28;20656;-76
2023/01/28 09:57:21;;;;;;;;;;;;;;;;;;4979804;28;19922;-77
2023/01/28 09:59:48;;;;;;;;;;;;;;;;;;4980866;28;19941;-76
2023/01/28 10:02:14;;;;;;;;;;;;;;;;;;4992180;28;19925;-78
2023/01/28 10:04:44;;;;;;;;;;;;;;;;;;4974609;28;19980;-76
2023/01/28 10:07:11;;;;;;;;;;;;;;;;;;4980677;28;19958;-75
2023/01/28 10:09:40;;;;;;;;;;;;;;;;;;4965141;28;20389;-76
2023/01/28 10:12:06;;;;;;;;;;;;;;;;;;4988400;28;19926;-75
2023/01/28 10:14:32;;;;;;;;;;;;;;;;;;4974066;28;19918;-75
2023/01/28 10:16:59;;;;;;;;;;;;;;;;;;4981395;28;19932;-75
2023/01/28 10:19:26;;;;;;;;;;;;;;;;;;4982476;28;19952;-75
2023/01/28 10:21:52;;;;;;;;;;;;;;;;;;4984074;28;19922;-76
2023/01/28 10:24:21;;;;;;;;;;;;;;;;;;4979588;28;19953;-76
2023/01/28 10:26:47;;;;;;;;;;;;;;;;;;4999019;28;19921;-80
2023/01/28 10:29:13;;;;;;;;;;;;;;;;;;4992600;28;19983;-76
2023/01/28 10:31:40;;;;;;;;;;;;;;;;;;4986430;28;20400;-76
2023/01/28 10:34:06;;;;;;;;;;;;;;;;;;4980897;28;19926;-74
2023/01/28 10:36:32;;;;;;;;;;;;;;;;;;5003699;28;20045;-75
2023/01/28 10:38:58;;;;;;;;;;;;;;;;;;4998595;28;19918;-74
2023/01/28 10:41:25;;;;;;;;;;;;;;;;;;4985296;28;19925;-74
2023/01/28 10:43:51;;;;;;;;;;;;;;;;;;4981938;28;19926;-74
2023/01/28 10:46:18;;;;;;;;;;;;;;;;;;4982857;28;19918;-74
2023/01/28 10:48:44;;;;;;;;;;;;;;;;;;4984059;28;19932;-75
2023/01/28 10:51:10;;;;;;;;;;;;;;;;;;4982284;28;19930;-74
2023/01/28 10:53:37;;;;;;;;;;;;;;;;;;4992292;28;20521;-75
2023/01/28 10:56:03;;;;;;;;;;;;;;;;;;4984716;28;19925;-74
2023/01/28 10:58:29;;;;;;;;;;;;;;;;;;4973533;28;20020;-74
2023/01/28 11:00:56;;;;;;;;;;;;;;;;;;5012848;28;19951;-74
2023/01/28 11:03:22;;;;;;;;;;;;;;;;;;5009074;28;19988;-74
2023/01/28 11:05:48;;;;;;;;;;;;;;;;;;4996665;28;20640;-74
2023/01/28 11:08:15;;;;;;;;;;;;;;;;;;4985724;28;19921;-74
2023/01/28 11:10:41;;;;;;;;;;;;;;;;;;4996961;28;20373;-74
2023/01/28 11:13:07;;;;;;;;;;;;;;;;;;4994114;28;19992;-74
2023/01/28 11:15:39;;;;;;;;;;;;;;;;;;4982296;28;20348;-75
2023/01/28 11:18:11;;;;;;;;;;;;;;;;;;4987425;28;19952;-73
2023/01/28 11:20:37;;;;;;;;;;;;;;;;;;4994559;28;19917;-75
2023/01/28 11:23:03;;;;;;;;;;;;;;;;;;4993548;28;20439;-75
2023/01/28 11:25:29;;;;;;;;;;;;;;;;;;4993394;28;20021;-75
2023/01/28 11:27:56;;;;;;;;;;;;;;;;;;5000767;28;19925;-75
2023/01/28 11:30:22;;;;;;;;;;;;;;;;;;4986976;28;20024;-75
2023/01/28 11:32:48;;;;;;;;;;;;;;;;;;4984704;28;19921;-75
2023/01/28 11:35:14;;;;;;;;;;;;;;;;;;4987894;28;20328;-76
2023/01/28 11:37:43;;;;;;;;;;;;;;;;;;4975560;28;21495;-75
2023/01/28 11:40:09;;;;;;;;;;;;;;;;;;5006743;28;20404;-76
2023/01/28 11:42:36;;;;;;;;;;;;;;;;;;4983066;28;19922;-76
2023/01/28 11:45:02;;;;;;;;;;;;;;;;;;4988557;28;19989;-75
2023/01/28 11:47:28;;;;;;;;;;;;;;;;;;4982354;28;19948;-76
2023/01/28 11:49:55;;;;;;;;;;;;;;;;;;4978184;28;19914;-75
2023/01/28 11:52:21;;;;;;;;;;;;;;;;;;4963026;28;19977;-75
2023/01/28 11:54:47;;;;;;;;;;;;;;;;;;4977141;28;20647;-74
2023/01/28 11:57:13;;;;;;;;;;;;;;;;;;4985824;28;19918;-74
2023/01/28 11:59:40;;;;;;;;;;;;;;;;;;4982650;28;19947;-74
2023/01/28 12:02:06;;;;;;;;;;;;;;;;;;4999062;28;19957;-75
2023/01/28 12:04:32;;;;;;;;;;;;;;;;;;4973736;28;20412;-75
2023/01/28 12:06:58;;;;;;;;;;;;;;;;;;4986398;28;19921;-75
2023/01/28 12:09:24;;;;;;;;;;;;;;;;;;4977275;28;20413;-75
2023/01/28 12:14:36;;;;;;;;;;;;;;;;;;4985232;28;19921;-76
2023/01/28 12:17:02;;;;;;;;;;;;;;;;;;4963005;28;19918;-75
2023/01/28 12:19:28;;;;;;;;;;;;;;;;;;4981123;28;20421;-77
2023/01/28 12:21:54;;;;;;;;;;;;;;;;;;4980602;28;19925;-76
2023/01/28 12:24:20;;;;;;;;;;;;;;;;;;4993207;28;19996;-75
2023/01/28 12:26:47;;;;;;;;;;;;;;;;;;4978046;28;20012;-75
2023/01/28 12:29:13;;;;;;;;;;;;;;;;;;5001585;28;19926;-75
2023/01/28 12:31:40;;;;;;;;;;;;;;;;;;4973104;28;19917;-75
2023/01/28 12:34:06;;;;;;;;;;;;;;;;;;4979207;28;19929;-75
2023/01/28 12:36:32;;;;;;;;;;;;;;;;;;4980342;28;20310;-75
2023/01/28 12:39:00;;;;;;;;;;;;;;;;;;4978283;28;19949;-75
2023/01/28 12:41:27;;;;;;;;;;;;;;;;;;4979090;28;19922;-77
2023/01/28 12:43:53;;;;;;;;;;;;;;;;;;4979801;28;19930;-74
2023/01/28 12:46:19;;;;;;;;;;;;;;;;;;4974455;28;19984;-75
2023/01/28 12:48:46;;;;;;;;;;;;;;;;;;4998553;28;19985;-74
2023/01/28 12:51:12;;;;;;;;;;;;;;;;;;4977477;28;19999;-75
2023/01/28 12:53:38;;;;;;;;;;;;;;;;;;4971937;28;19976;-74
2023/01/28 12:56:05;;;;;;;;;;;;;;;;;;4973951;28;19976;-75
2023/01/28 12:58:31;;;;;;;;;;;;;;;;;;4974682;28;19984;-75
2023/01/28 13:00:57;;;;;;;;;;;;;;;;;;4976531;28;19922;-75
2023/01/28 13:03:23;;;;;;;;;;;;;;;;;;4976004;28;19933;-75
2023/01/28 13:05:50;;;;;;;;;;;;;;;;;;4958478;28;20529;-75
2023/01/28 13:08:16;;;;;;;;;;;;;;;;;;4990074;28;20401;-75
2023/01/28 13:10:42;;;;;;;;;;;;;;;;;;4990927;28;19939;-75
2023/01/28 13:13:08;;;;;;;;;;;;;;;;;;4979841;28;19922;-75
2023/01/28 13:15:35;;;;;;;;;;;;;;;;;;4975876;28;19926;-74
2023/01/28 13:18:01;;;;;;;;;;;;;;;;;;4981673;28;19918;-74
2023/01/28 13:20:27;;;;;;;;;;;;;;;;;;4977487;28;20464;-75
2023/01/28 13:22:53;;;;;;;;;;;;;;;;;;4981270;28;20004;-74
2023/01/28 13:25:20;;;;;;;;;;;;;;;;;;4999976;28;19999;-76
2023/01/28 13:27:46;;;;;;;;;;;;;;;;;;4996628;28;19932;-78
2023/01/28 13:30:12;;;;;;;;;;;;;;;;;;4997936;28;19928;-76
2023/01/28 13:32:38;;;;;;;;;;;;;;;;;;4978295;28;19922;-77
2023/01/28 13:35:05;;;;;;;;;;;;;;;;;;4985364;28;19917;-78
2023/01/28 13:37:31;;;;;;;;;;;;;;;;;;4983986;28;19988;-78
2023/01/28 13:39:57;;;;;;;;;;;;;;;;;;4979155;28;20773;-77
2023/01/28 13:42:23;;;;;;;;;;;;;;;;;;4983941;28;19921;-76
2023/01/28 13:44:50;;;;;;;;;;;;;;;;;;5008248;28;19933;-76
2023/01/28 13:47:16;;;;;;;;;;;;;;;;;;4988635;28;20546;-76
2023/01/28 13:49:42;;;;;;;;;;;;;;;;;;4986998;28;19995;-77
2023/01/28 13:52:08;;;;;;;;;;;;;;;;;;4978643;28;19976;-77
2023/01/28 13:54:35;;;;;;;;;;;;;;;;;;4963461;28;20416;-77
2023/01/28 13:57:02;;;;;;;;;;;;;;;;;;4965834;28;19929;-76
2023/01/28 13:59:28;;;;;;;;;;;;;;;;;;4966186;28;19945;-77
2023/01/28 14:01:55;;;;;;;;;;;;;;;;;;4961886;28;19918;-77
2023/01/28 14:04:21;;;;;;;;;;;;;;;;;;4968838;28;19926;-77
2023/01/28 14:06:47;;;;;;;;;;;;;;;;;;4981489;28;20021;-76
2023/01/28 14:09:13;;;;;;;;;;;;;;;;;;4986299;28;20447;-77
2023/01/28 14:11:40;;;;;;;;;;;;;;;;;;4986151;28;20283;-77
2023/01/28 14:14:06;;;;;;;;;;;;;;;;;;4966633;28;19966;-76
2023/01/28 14:16:32;;;;;;;;;;;;;;;;;;4977932;28;19926;-77
2023/01/28 14:18:58;;;;;;;;;;;;;;;;;;4981989;28;19918;-77
2023/01/28 14:21:24;;;;;;;;;;;;;;;;;;4965969;28;20418;-77
2023/01/28 14:23:51;;;;;;;;;;;;;;;;;;4974503;28;19929;-76
2023/01/28 14:26:17;;;;;;;;;;;;;;;;;;4964177;28;19918;-77
2023/01/28 14:28:43;;;;;;;;;;;;;;;;;;4965679;28;19926;-77
2023/01/28 14:31:10;;;;;;;;;;;;;;;;;;4964890;28;20016;-77
2023/01/28 14:33:36;;;;;;;;;;;;;;;;;;4961339;28;19922;-78
2023/01/28 14:36:06;;;;;;;;;;;;;;;;;;4966191;28;20648;-78
2023/01/28 14:38:49;;;;;;;;;;;;;;;;;;4976860;28;19925;-78
2023/01/28 14:41:15;;;;;;;;;;;;;;;;;;4981830;28;19928;-77
2023/01/28 14:43:41;;;;;;;;;;;;;;;;;;4968014;28;19929;-77
2023/01/28 14:46:07;;;;;;;;;;;;;;;;;;4956948;28;19922;-77
2023/01/28 14:48:37;;;;;;;;;;;;;;;;;;4978795;28;20361;-76
2023/01/28 14:51:03;;;;;;;;;;;;;;;;;;4982229;28;19928;-78
2023/01/28 14:53:29;;;;;;;;;;;;;;;;;;4973029;28;19921;-78
2023/01/28 14:55:55;;;;;;;;;;;;;;;;;;4963876;28;19940;-78
2023/01/28 14:58:22;;;;;;;;;;;;;;;;;;4975223;28;19972;-80
2023/01/28 15:00:51;;;;;;;;;;;;;;;;;;4982428;28;19925;-77
2023/01/28 15:03:17;;;;;;;;;;;;;;;;;;5003927;28;19925;-78
2023/01/28 15:05:43;;;;;;;;;;;;;;;;;;5003738;28;20383;-78
2023/01/28 15:08:09;;;;;;;;;;;;;;;;;;5001801;28;20657;-75
2023/01/28 15:10:35;;;;;;;;;;;;;;;;;;4981765;28;19976;-77
2023/01/28 15:13:02;;;;;;;;;;;;;;;;;;4989359;28;19914;-76
2023/01/28 15:15:28;;;;;;;;;;;;;;;;;;4985952;28;19926;-78
2023/01/28 15:17:54;;;;;;;;;;;;;;;;;;5006204;28;20259;-77
2023/01/28 15:20:20;;;;;;;;;;;;;;;;;;4981397;28;19924;-77
2023/01/28 15:22:47;;;;;;;;;;;;;;;;;;4985766;28;20431;-77
2023/01/28 15:25:13;;;;;;;;;;;;;;;;;;4998767;28;19926;-77
2023/01/28 15:27:39;;;;;;;;;;;;;;;;;;5005156;28;19914;-77
2023/01/28 15:30:05;;;;;;;;;;;;;;;;;;4984863;28;19925;-76
2023/01/28 15:32:31;;;;;;;;;;;;;;;;;;4991190;28;19995;-75
2023/01/28 15:34:58;;;;;;;;;;;;;;;;;;4971575;28;19921;-74
2023/01/28 15:37:24;;;;;;;;;;;;;;;;;;4978818;28;20340;-74
2023/01/28 15:39:50;;;;;;;;;;;;;;;;;;4981658;28;19968;-72
2023/01/28 15:42:16;;;;;;;;;;;;;;;;;;4995570;28;19917;-73
2023/01/28 15:44:43;;;;;;;;;;;;;;;;;;4971160;28;19930;-73
2023/01/28 15:47:09;;;;;;;;;;;;;;;;;;4982555;28;19918;-73
2023/01/28 15:49:35;;;;;;;;;;;;;;;;;;4974825;28;19922;-74
2023/01/28 15:52:02;;;;;;;;;;;;;;;;;;4978781;28;19940;-74
2023/01/28 15:54:29;;;;;;;;;;;;;;;;;;4975552;28;19996;-76
2023/01/28 15:56:55;;;;;;;;;;;;;;;;;;4973009;28;19975;-74
2023/01/28 15:59:21;;;;;;;;;;;;;;;;;;4966001;28;19921;-73
2023/01/28 16:01:48;;;;;;;;;;;;;;;;;;4975574;28;19980;-73
2023/01/28 16:04:14;;;;;;;;;;;;;;;;;;4977291;28;20337;-74
2023/01/28 16:06:41;;;;;;;;;;;;;;;;;;4975581;28;19933;-73
2023/01/28 16:09:10;;;;;;;;;;;;;;;;;;4979524;28;19933;-73
2023/01/28 16:11:40;;;;;;;;;;;;;;;;;;4989067;28;20680;-73
2023/01/28 16:14:06;;;;;;;;;;;;;;;;;;4999803;28;20281;-74
2023/01/28 16:16:33;;;;;;;;;;;;;;;;;;4982828;28;19949;-74
2023/01/28 16:18:59;;;;;;;;;;;;;;;;;;4986404;28;20423;-75
2023/01/28 16:21:26;;;;;;;;;;;;;;;;;;4969443;28;20614;-74
2023/01/28 16:23:52;;;;;;;;;;;;;;;;;;4990854;28;19937;-74
2023/01/28 16:26:19;;;;;;;;;;;;;;;;;;4986661;28;19917;-75
2023/01/28 16:28:46;;;;;;;;;;;;;;;;;;4992912;28;19979;-74
2023/01/28 16:31:12;;;;;;;;;;;;;;;;;;4980852;28;19933;-73
2023/01/28 16:33:38;;;;;;;;;;;;;;;;;;4982877;28;19975;-74
2023/01/28 16:36:04;;;;;;;;;;;;;;;;;;4999217;28;19918;-74
2023/01/28 16:38:31;;;;;;;;;;;;;;;;;;4989867;28;19918;-77
2023/01/28 16:40:58;;;;;;;;;;;;;;;;;;4984311;28;19972;-74
2023/01/28 16:43:24;;;;;;;;;;;;;;;;;;4980337;28;20370;-75
2023/01/28 16:45:50;;;;;;;;;;;;;;;;;;4986202;28;19918;-73
2023/01/28 16:48:16;;;;;;;;;;;;;;;;;;4997439;28;19917;-73
2023/01/28 16:50:42;;;;;;;;;;;;;;;;;;4967074;28;19944;-73
2023/01/28 16:53:09;;;;;;;;;;;;;;;;;;4950852;28;20000;-73
2023/01/28 16:55:35;;;;;;;;;;;;;;;;;;4945887;28;20506;-75
2023/01/28 16:58:01;;;;;;;;;;;;;;;;;;4963650;28;19921;-74
2023/01/28 17:00:30;;;;;;;;;;;;;;;;;;4960903;28;20270;-74
2023/01/28 17:02:57;;;;;;;;;;;;;;;;;;4968429;28;19933;-74
2023/01/28 17:05:25;;;;;;;;;;;;;;;;;;4963141;28;19929;-74
2023/01/28 17:07:53;;;;;;;;;;;;;;;;;;4959038;28;20396;-74
2023/01/28 17:10:20;;;;;;;;;;;;;;;;;;4980873;28;19921;-74
2023/01/28 17:12:46;;;;;;;;;;;;;;;;;;4961579;28;20320;-74
2023/01/28 17:15:12;;;;;;;;;;;;;;;;;;4962966;28;19926;-74